Time;durP1;ratioP1;P1;durP2;ratioP2;P2;SDS_P1;SDS_P2;PMS_P1;PMS_P2;Temp;Humidity;BMP_temperature;BMP_pressure;BME280_temperature;BME280_humidity;BME280_pressure;Samples;Min_cycle;Max_cycle;Signal;HPM_P1;HPM_P2
2022/06/27 04:11:14;;;;;;;;;;;26.30;99.90;;;;;;5410754;23;20008;-84
2022/06/27 04:13:41;;;;;;;;;;;26.30;99.90;;;;;;4983345;28;19973;-84
2022/06/27 04:16:07;;;;;;;;;;;26.30;99.90;;;;;;4983804;28;20368;-85
2022/06/27 04:18:34;;;;;;;;;;;26.30;99.90;;;;;;4981428;28;19933;-84
2022/06/27 04:21:01;;;;;;;;;;;26.30;99.90;;;;;;4983463;28;20389;-84
2022/06/27 04:23:28;;;;;;;;;;;26.30;99.90;;;;;;4979434;28;19969;-84
2022/06/27 04:25:54;;;;;;;;;;;26.30;99.90;;;;;;4978477;28;19973;-81
2022/06/27 04:28:22;;;;;;;;;;;26.30;99.90;;;;;;4976155;28;20344;-80
2022/06/27 04:30:49;;;;;;;;;;;26.30;99.90;;;;;;4976205;28;19957;-80
2022/06/27 04:33:16;;;;;;;;;;;26.30;99.90;;;;;;4976607;28;19929;-81
2022/06/27 04:35:46;;;;;;;;;;;26.30;99.90;;;;;;4976795;28;19929;-82
2022/06/27 04:38:12;;;;;;;;;;;26.30;99.90;;;;;;4976732;28;20366;-81
2022/06/27 04:40:39;;;;;;;;;;;26.30;99.90;;;;;;4976601;28;20021;-81
2022/06/27 04:43:07;;;;;;;;;;;26.30;99.90;;;;;;4976185;28;20017;-80
2022/06/27 04:45:35;;;;;;;;;;;26.20;99.90;;;;;;4976070;28;19929;-80
2022/06/27 04:48:04;;;;;;;;;;;26.20;99.90;;;;;;4976302;28;19922;-81
2022/06/27 04:50:32;;;;;;;;;;;26.20;99.90;;;;;;4975583;28;19930;-84
2022/06/27 04:53:00;;;;;;;;;;;26.20;99.90;;;;;;4976175;28;19928;-79
2022/06/27 04:55:27;;;;;;;;;;;26.20;99.90;;;;;;4976512;28;19944;-80
2022/06/27 04:57:54;;;;;;;;;;;26.10;99.90;;;;;;4976125;28;19922;-80
2022/06/27 05:00:20;;;;;;;;;;;26.10;99.90;;;;;;4976296;28;20346;-81
2022/06/27 05:02:49;;;;;;;;;;;26.10;99.90;;;;;;4976599;28;20005;-80
2022/06/27 05:05:15;;;;;;;;;;;26.10;99.90;;;;;;4979399;28;19922;-82
2022/06/27 05:07:43;;;;;;;;;;;26.10;99.90;;;;;;4982295;28;19961;-83
2022/06/27 05:10:10;;;;;;;;;;;26.10;99.90;;;;;;4985428;28;19922;-82
2022/06/27 05:12:37;;;;;;;;;;;26.10;99.90;;;;;;4987563;28;19929;-84
2022/06/27 05:15:04;;;;;;;;;;;26.10;99.90;;;;;;4986783;28;19922;-86
2022/06/27 05:17:31;;;;;;;;;;;26.10;99.90;;;;;;4986762;28;20394;-85
2022/06/27 05:19:59;;;;;;;;;;;26.10;99.90;;;;;;4988608;28;19922;-85
2022/06/27 05:22:26;;;;;;;;;;;26.10;99.90;;;;;;4989867;28;19961;-85
2022/06/27 05:24:52;;;;;;;;;;;26.10;99.90;;;;;;4985647;28;19957;-85
2022/06/27 05:27:19;;;;;;;;;;;26.10;99.90;;;;;;4985471;28;19976;-86
2022/06/27 05:29:46;;;;;;;;;;;26.10;99.90;;;;;;4985016;28;19977;-86
2022/06/27 05:32:15;;;;;;;;;;;26.10;99.90;;;;;;4985592;28;19928;-85
2022/06/27 05:34:42;;;;;;;;;;;26.10;99.90;;;;;;4985268;28;19969;-85
2022/06/27 05:37:10;;;;;;;;;;;26.10;99.90;;;;;;4986471;28;20333;-84
2022/06/27 05:39:37;;;;;;;;;;;26.10;99.90;;;;;;4987254;28;20304;-84
2022/06/27 05:42:04;;;;;;;;;;;26.10;99.90;;;;;;4986092;28;19961;-84
2022/06/27 08:20:13;;;;;;;;;;;26.20;96.50;;;;;;5563129;23;19921;-89
2022/06/27 08:25:49;;;;;;;;;;;26.20;96.30;;;;;;4943632;28;20094;-88
2022/06/27 08:28:16;;;;;;;;;;;26.20;96.20;;;;;;5000588;28;19945;-83
2022/06/27 08:30:43;;;;;;;;;;;26.20;96.50;;;;;;5001493;28;20358;-83
2022/06/27 08:33:12;;;;;;;;;;;26.20;96.00;;;;;;5001145;28;19921;-83
2022/06/27 08:35:47;;;;;;;;;;;26.20;95.90;;;;;;5001756;28;19929;-82
2022/06/27 08:38:15;;;;;;;;;;;26.20;95.70;;;;;;5001107;28;20327;-83
2022/06/27 08:40:42;;;;;;;;;;;26.20;95.70;;;;;;5001455;28;19922;-83
2022/06/27 08:43:09;;;;;;;;;;;26.20;95.70;;;;;;5001695;28;19948;-83
2022/06/27 08:45:37;;;;;;;;;;;26.20;95.50;;;;;;5002174;28;19953;-83
2022/06/27 08:48:07;;;;;;;;;;;26.20;95.40;;;;;;5002289;28;19984;-83
2022/06/27 08:50:34;;;;;;;;;;;26.20;95.20;;;;;;5001029;28;19991;-81
2022/06/27 08:53:02;;;;;;;;;;;26.20;95.10;;;;;;4994579;28;20278;-87
2022/06/27 08:55:30;;;;;;;;;;;26.20;94.90;;;;;;4998358;28;19926;-84
2022/06/27 08:58:02;;;;;;;;;;;26.20;94.80;;;;;;4998462;28;19957;-87
2022/06/27 09:00:30;;;;;;;;;;;26.20;94.60;;;;;;4998038;28;20024;-87
2022/06/27 09:02:56;;;;;;;;;;;26.20;94.30;;;;;;4998424;28;20004;-87
2022/06/27 09:05:26;;;;;;;;;;;26.20;94.10;;;;;;4998316;28;19953;-87
2022/06/27 09:07:53;;;;;;;;;;;26.10;93.90;;;;;;4999101;28;20369;-83
2022/06/27 09:10:26;;;;;;;;;;;26.20;93.80;;;;;;5001275;28;19921;-84
2022/06/27 09:12:57;;;;;;;;;;;26.20;93.50;;;;;;4998832;28;19928;-85
2022/06/27 09:15:26;;;;;;;;;;;26.10;93.40;;;;;;4998325;28;19928;-86
2022/06/27 09:18:04;;;;;;;;;;;26.10;93.20;;;;;;4997905;28;20350;-86
2022/06/27 09:20:47;;;;;;;;;;;26.10;93.00;;;;;;4997583;28;19928;-86
2022/06/27 09:23:27;;;;;;;;;;;26.10;92.80;;;;;;4998110;28;19921;-86
2022/06/27 09:25:59;;;;;;;;;;;26.10;92.70;;;;;;4997828;28;20013;-87
2022/06/27 09:28:39;;;;;;;;;;;26.00;92.60;;;;;;4997809;28;19922;-88
2022/06/27 09:31:09;;;;;;;;;;;26.00;92.50;;;;;;4997787;28;19922;-87
2022/06/27 09:33:38;;;;;;;;;;;26.10;92.40;;;;;;4997609;28;19922;-87
2022/06/27 09:36:15;;;;;;;;;;;26.10;92.30;;;;;;4997770;28;19925;-86
2022/06/27 09:38:42;;;;;;;;;;;26.10;92.20;;;;;;4998460;28;19921;-86
2022/06/27 09:41:12;;;;;;;;;;;26.10;92.10;;;;;;4997638;28;19926;-87
2022/06/27 09:43:41;;;;;;;;;;;26.10;91.80;;;;;;4997572;28;19922;-87
2022/06/27 09:46:09;;;;;;;;;;;26.10;91.70;;;;;;4997833;28;20325;-87
2022/06/27 09:48:37;;;;;;;;;;;26.10;91.70;;;;;;4997313;28;19921;-87
2022/06/27 09:51:04;;;;;;;;;;;26.10;91.60;;;;;;4997302;28;19984;-87
2022/06/27 09:53:31;;;;;;;;;;;26.10;91.60;;;;;;4997323;28;19921;-87
2022/06/27 09:55:59;;;;;;;;;;;26.10;91.50;;;;;;4996975;28;20015;-86
2022/06/27 09:58:29;;;;;;;;;;;26.10;91.40;;;;;;4996932;28;20397;-87
2022/06/27 10:00:55;;;;;;;;;;;26.10;91.30;;;;;;4997166;28;19922;-84
2022/06/27 10:03:23;;;;;;;;;;;26.10;91.10;;;;;;4997029;28;20387;-85
2022/06/27 10:05:50;;;;;;;;;;;26.10;91.10;;;;;;4995764;28;20405;-85
2022/06/27 10:08:17;;;;;;;;;;;26.10;91.00;;;;;;4996907;28;20348;-85
2022/06/27 10:11:06;;;;;;;;;;;26.10;91.00;;;;;;4996944;28;19926;-85
2022/06/27 10:13:35;;;;;;;;;;;26.10;90.90;;;;;;4993222;28;19947;-85
2022/06/27 10:16:06;;;;;;;;;;;26.10;90.70;;;;;;4996658;28;20460;-85
2022/06/27 10:18:48;;;;;;;;;;;26.10;90.60;;;;;;4997746;28;20012;-85
2022/06/27 10:21:24;;;;;;;;;;;26.10;90.60;;;;;;4996376;28;19922;-85
2022/06/27 10:24:07;;;;;;;;;;;26.10;90.60;;;;;;4997061;28;20020;-85
2022/06/27 10:26:41;;;;;;;;;;;26.10;90.60;;;;;;4996039;28;20295;-85
2022/06/27 10:29:28;;;;;;;;;;;26.10;90.50;;;;;;4996605;28;20345;-85
2022/06/27 10:31:57;;;;;;;;;;;26.10;90.40;;;;;;4996396;28;20412;-84
2022/06/27 10:34:57;;;;;;;;;;;26.10;90.20;;;;;;4997229;28;19921;-85
2022/06/27 10:37:34;;;;;;;;;;;26.10;90.20;;;;;;4997574;28;20333;-84
2022/06/27 10:40:15;;;;;;;;;;;26.10;90.10;;;;;;4998100;28;20008;-84
2022/06/27 10:42:46;;;;;;;;;;;26.10;90.10;;;;;;4995781;28;19929;-84
2022/06/27 10:45:28;;;;;;;;;;;26.10;90.20;;;;;;4996801;28;19943;-84
2022/06/27 10:47:57;;;;;;;;;;;26.10;90.20;;;;;;4994427;28;19921;-84
2022/06/27 10:50:24;;;;;;;;;;;26.10;90.20;;;;;;4996333;28;19921;-84
2022/06/27 10:52:51;;;;;;;;;;;26.20;90.20;;;;;;4996257;28;19926;-84
2022/06/27 10:55:22;;;;;;;;;;;26.20;90.20;;;;;;4996814;28;19965;-84
2022/06/27 10:57:49;;;;;;;;;;;26.20;90.20;;;;;;4997266;28;19922;-84
2022/06/27 11:00:46;;;;;;;;;;;26.20;90.20;;;;;;4998632;28;19968;-84
2022/06/27 11:03:22;;;;;;;;;;;26.20;90.30;;;;;;4998230;28;19929;-87
2022/06/27 11:05:53;;;;;;;;;;;26.20;90.30;;;;;;4996590;28;20341;-86
2022/06/27 11:08:20;;;;;;;;;;;26.20;90.40;;;;;;4996247;28;19922;-86
2022/06/27 11:10:47;;;;;;;;;;;26.20;90.50;;;;;;4997473;28;20344;-85
2022/06/27 11:13:28;;;;;;;;;;;26.20;90.60;;;;;;4996418;28;19922;-84
2022/06/27 11:15:55;;;;;;;;;;;26.20;90.70;;;;;;4995990;28;19989;-86
2022/06/27 11:18:23;;;;;;;;;;;26.30;90.70;;;;;;4996589;28;20000;-87
2022/06/27 11:20:56;;;;;;;;;;;26.30;90.90;;;;;;4995882;28;19928;-85
2022/06/27 11:23:23;;;;;;;;;;;26.30;91.10;;;;;;4995375;28;20021;-85
2022/06/27 11:25:50;;;;;;;;;;;26.30;91.30;;;;;;4995763;28;19921;-85
2022/06/27 11:33:48;;;;;;;;;;;26.30;92.00;;;;;;4995958;28;20331;-86
2022/06/27 11:36:15;;;;;;;;;;;26.40;92.40;;;;;;4995450;28;19921;-86
2022/06/27 11:38:43;;;;;;;;;;;26.40;92.60;;;;;;4995978;28;19948;-86
2022/06/27 11:41:10;;;;;;;;;;;26.40;93.10;;;;;;4995748;28;19922;-86
2022/06/27 11:43:46;;;;;;;;;;;26.40;93.00;;;;;;4995846;28;19922;-84
2022/06/27 11:46:21;;;;;;;;;;;26.40;93.20;;;;;;4995462;28;20012;-86
2022/06/27 11:48:51;;;;;;;;;;;26.40;93.30;;;;;;4995846;28;20008;-83
2022/06/27 11:51:22;;;;;;;;;;;26.40;93.30;;;;;;4996487;28;19925;-83
2022/06/27 11:53:52;;;;;;;;;;;26.40;93.50;;;;;;4994832;28;20461;-85
2022/06/27 11:56:23;;;;;;;;;;;26.40;93.60;;;;;;4995236;28;19925;-85
2022/06/27 11:58:50;;;;;;;;;;;26.40;93.80;;;;;;4995578;28;20397;-85
2022/06/27 12:01:16;;;;;;;;;;;26.40;93.90;;;;;;4998404;28;19976;-85
2022/06/27 12:03:58;;;;;;;;;;;26.40;94.00;;;;;;4998276;28;19926;-85
2022/06/27 12:06:29;;;;;;;;;;;26.40;94.10;;;;;;4996232;28;20373;-85
2022/06/27 12:08:59;;;;;;;;;;;26.40;94.20;;;;;;4997730;28;19927;-85
2022/06/27 12:11:29;;;;;;;;;;;26.40;94.20;;;;;;4997298;28;19976;-85
2022/06/27 12:13:59;;;;;;;;;;;26.40;94.30;;;;;;4996771;28;20012;-85
2022/06/27 12:16:26;;;;;;;;;;;26.40;94.40;;;;;;4996981;28;20012;-85
2022/06/27 12:18:53;;;;;;;;;;;26.40;94.40;;;;;;4996403;28;19921;-86
2022/06/27 12:21:20;;;;;;;;;;;26.40;94.40;;;;;;4994800;28;20008;-85
2022/06/27 12:23:48;;;;;;;;;;;26.30;94.40;;;;;;4996806;28;20325;-86
2022/06/27 12:26:15;;;;;;;;;;;26.30;94.50;;;;;;4996004;28;19921;-81
2022/06/27 12:28:42;;;;;;;;;;;26.30;94.50;;;;;;4996553;28;19926;-81
2022/06/27 12:31:08;;;;;;;;;;;26.30;94.60;;;;;;4997223;28;20365;-82
2022/06/27 12:33:35;;;;;;;;;;;26.30;94.60;;;;;;4995850;28;19922;-84
2022/06/27 12:36:02;;;;;;;;;;;26.30;94.60;;;;;;4995873;28;19929;-81
2022/06/27 12:38:28;;;;;;;;;;;26.30;94.70;;;;;;4996196;28;20270;-81
2022/06/27 12:41:11;;;;;;;;;;;26.30;94.70;;;;;;4995997;28;20016;-81
2022/06/27 12:43:38;;;;;;;;;;;26.30;94.80;;;;;;4995993;28;19922;-81
2022/06/27 12:46:05;;;;;;;;;;;26.30;94.90;;;;;;4996110;28;19925;-81
2022/06/27 12:48:32;;;;;;;;;;;26.30;95.00;;;;;;4995610;28;20020;-81
2022/06/27 12:50:59;;;;;;;;;;;26.30;95.10;;;;;;4995444;28;19929;-80
2022/06/27 12:53:26;;;;;;;;;;;26.30;95.20;;;;;;4995090;28;19922;-81
2022/06/27 12:55:52;;;;;;;;;;;26.30;95.30;;;;;;4995685;28;19967;-82
2022/06/27 12:58:21;;;;;;;;;;;26.30;95.40;;;;;;4996626;28;20407;-82
2022/06/27 13:00:52;;;;;;;;;;;26.40;95.60;;;;;;5002508;28;19957;-83
2022/06/27 13:03:19;;;;;;;;;;;26.40;95.70;;;;;;5001089;28;19926;-87
2022/06/27 13:05:46;;;;;;;;;;;26.40;95.80;;;;;;5000068;28;20016;-87
2022/06/27 13:08:13;;;;;;;;;;;26.40;95.80;;;;;;4999310;28;20433;-87
2022/06/27 13:10:40;;;;;;;;;;;26.40;95.80;;;;;;4999435;28;19921;-86
2022/06/27 13:13:07;;;;;;;;;;;26.40;95.80;;;;;;5000588;28;19969;-84
2022/06/27 13:15:36;;;;;;;;;;;26.40;96.00;;;;;;5000239;28;19921;-83
2022/06/27 13:18:03;;;;;;;;;;;26.40;96.10;;;;;;4999899;28;19922;-84
2022/06/27 13:20:31;;;;;;;;;;;26.40;96.20;;;;;;4999560;28;19965;-88
2022/06/27 13:22:58;;;;;;;;;;;26.40;96.20;;;;;;5000716;28;19945;-87
2022/06/27 13:25:25;;;;;;;;;;;26.40;96.20;;;;;;5000425;28;19945;-86
2022/06/27 13:27:52;;;;;;;;;;;26.40;96.20;;;;;;4999056;28;20008;-87
2022/06/27 13:30:19;;;;;;;;;;;26.40;96.30;;;;;;5000559;28;20366;-87
2022/06/27 13:32:48;;;;;;;;;;;26.40;96.30;;;;;;4999990;28;19929;-87
2022/06/27 13:35:16;;;;;;;;;;;26.40;96.40;;;;;;4998656;28;19921;-88
2022/06/27 13:37:43;;;;;;;;;;;26.40;96.50;;;;;;4994430;28;19922;-88
2022/06/27 13:40:10;;;;;;;;;;;26.40;96.50;;;;;;4995644;28;20013;-86
2022/06/27 13:42:37;;;;;;;;;;;26.50;96.50;;;;;;5006024;28;19922;-87
2022/06/27 13:45:06;;;;;;;;;;;26.50;96.50;;;;;;5002892;28;19922;-84
2022/06/27 13:47:33;;;;;;;;;;;26.40;96.40;;;;;;5001450;28;19999;-82
2022/06/27 13:50:02;;;;;;;;;;;26.40;96.40;;;;;;4998291;28;20009;-86
2022/06/27 13:52:30;;;;;;;;;;;26.50;96.40;;;;;;4998908;28;20067;-85
2022/06/27 13:54:57;;;;;;;;;;;26.50;96.40;;;;;;4998223;28;19928;-88
2022/06/27 13:57:23;;;;;;;;;;;26.40;96.40;;;;;;5001140;28;20374;-82
2022/06/27 13:59:50;;;;;;;;;;;26.50;96.40;;;;;;4999892;28;20364;-83
2022/06/27 14:02:17;;;;;;;;;;;26.50;96.40;;;;;;5000584;28;19922;-81
2022/06/27 14:04:43;;;;;;;;;;;26.50;96.40;;;;;;5000796;28;19929;-81
2022/06/27 14:09:55;;;;;;;;;;;26.50;96.20;;;;;;4999255;28;19928;-80
2022/06/27 14:12:22;;;;;;;;;;;26.50;96.20;;;;;;4998495;28;20028;-80
2022/06/27 14:14:49;;;;;;;;;;;26.50;96.10;;;;;;4999305;28;19922;-80
2022/06/27 14:17:15;;;;;;;;;;;26.50;95.90;;;;;;4998895;28;19922;-79
2022/06/27 14:19:42;;;;;;;;;;;26.50;95.80;;;;;;4998945;28;19925;-80
2022/06/27 14:22:09;;;;;;;;;;;26.50;95.80;;;;;;4998827;28;19928;-80
2022/06/27 14:24:37;;;;;;;;;;;26.40;95.80;;;;;;4998754;28;19921;-80
2022/06/27 14:27:04;;;;;;;;;;;26.50;95.80;;;;;;4998747;28;19921;-80
2022/06/27 14:29:31;;;;;;;;;;;26.50;95.60;;;;;;4998317;28;20373;-80
2022/06/27 14:31:57;;;;;;;;;;;26.40;95.50;;;;;;4998066;28;19922;-80
2022/06/27 14:34:24;;;;;;;;;;;26.40;95.40;;;;;;4997679;28;19933;-80
2022/06/27 14:36:51;;;;;;;;;;;26.40;95.30;;;;;;4997257;28;19921;-80
2022/06/27 14:39:17;;;;;;;;;;;26.40;95.20;;;;;;4998132;28;19926;-81
2022/06/27 14:41:47;;;;;;;;;;;26.40;95.10;;;;;;4997975;28;20032;-81
2022/06/27 14:44:15;;;;;;;;;;;26.40;95.00;;;;;;4997862;28;19929;-78
2022/06/27 14:46:41;;;;;;;;;;;26.40;94.90;;;;;;4996254;28;19969;-77
2022/06/27 14:49:08;;;;;;;;;;;26.40;94.80;;;;;;4995611;28;20296;-78
2022/06/27 14:51:35;;;;;;;;;;;26.40;94.70;;;;;;4996360;28;20297;-79
2022/06/27 14:54:02;;;;;;;;;;;26.40;94.60;;;;;;4996921;28;19928;-79
2022/06/27 14:56:29;;;;;;;;;;;26.40;94.80;;;;;;4996212;28;19921;-79
2022/06/27 14:58:57;;;;;;;;;;;26.40;94.40;;;;;;4996526;28;20296;-81
2022/06/27 15:01:25;;;;;;;;;;;26.40;94.30;;;;;;4997242;28;19928;-80
2022/06/27 15:03:52;;;;;;;;;;;26.40;94.20;;;;;;4998276;28;19921;-80
2022/06/27 15:06:18;;;;;;;;;;;26.40;94.10;;;;;;4997717;28;19926;-80
2022/06/27 15:08:45;;;;;;;;;;;26.40;94.00;;;;;;4997040;28;20384;-80
2022/06/27 15:13:58;;;;;;;;;;;26.40;93.80;;;;;;5000410;28;19924;-81
2022/06/27 15:16:25;;;;;;;;;;;26.30;93.70;;;;;;4999957;28;20015;-81
2022/06/27 15:18:52;;;;;;;;;;;26.40;93.60;;;;;;4998750;28;19929;-81
2022/06/27 15:21:19;;;;;;;;;;;26.30;93.40;;;;;;5001093;28;20308;-83
2022/06/27 15:23:45;;;;;;;;;;;26.40;93.30;;;;;;5000812;28;20012;-81
2022/06/27 15:26:12;;;;;;;;;;;26.40;93.30;;;;;;5001484;28;19980;-82
2022/06/27 15:28:39;;;;;;;;;;;26.40;93.30;;;;;;5000763;28;20009;-83
2022/06/27 15:31:08;;;;;;;;;;;26.30;93.20;;;;;;5000002;28;20408;-80
2022/06/27 15:33:34;;;;;;;;;;;26.40;93.30;;;;;;4999181;28;20308;-81
2022/06/27 15:36:05;;;;;;;;;;;26.40;93.30;;;;;;4998456;28;20318;-83
2022/06/27 15:38:33;;;;;;;;;;;26.40;93.30;;;;;;5000932;28;20009;-81
2022/06/27 15:41:00;;;;;;;;;;;26.40;93.30;;;;;;4998404;28;20329;-81
2022/06/27 15:43:26;;;;;;;;;;;26.40;93.30;;;;;;4999005;28;19965;-80
2022/06/27 15:45:53;;;;;;;;;;;26.40;93.30;;;;;;4998677;28;20350;-82
2022/06/27 15:48:21;;;;;;;;;;;26.40;93.30;;;;;;4997780;28;19921;-81
2022/06/27 15:50:48;;;;;;;;;;;26.40;93.30;;;;;;4998169;28;19921;-81
2022/06/27 15:53:14;;;;;;;;;;;26.40;93.30;;;;;;4998339;28;19940;-83
2022/06/27 15:55:41;;;;;;;;;;;26.40;93.30;;;;;;4996530;28;20363;-82
2022/06/27 15:58:08;;;;;;;;;;;26.40;93.20;;;;;;4998900;28;20326;-83
2022/06/27 16:00:35;;;;;;;;;;;26.40;93.10;;;;;;4995630;28;19925;-83
2022/06/27 16:03:01;;;;;;;;;;;26.40;93.00;;;;;;4995717;28;20494;-83
2022/06/27 16:05:30;;;;;;;;;;;26.40;92.90;;;;;;4995840;28;19922;-83
2022/06/27 16:07:57;;;;;;;;;;;26.40;92.80;;;;;;4995654;28;19925;-85
2022/06/27 16:10:24;;;;;;;;;;;26.40;92.70;;;;;;4995413;28;20013;-83
2022/06/27 16:12:54;;;;;;;;;;;26.30;92.50;;;;;;4996399;28;19968;-84
2022/06/27 16:15:20;;;;;;;;;;;26.40;92.50;;;;;;4996156;28;20286;-84
2022/06/27 16:17:47;;;;;;;;;;;26.40;92.40;;;;;;4997535;28;20012;-83
2022/06/27 16:20:14;;;;;;;;;;;26.40;92.30;;;;;;4998247;28;19988;-82
2022/06/27 16:22:42;;;;;;;;;;;26.40;92.20;;;;;;4999778;28;19960;-83
2022/06/27 16:25:09;;;;;;;;;;;26.40;92.10;;;;;;4999132;28;19922;-84
2022/06/27 16:27:36;;;;;;;;;;;26.30;92.00;;;;;;4999589;28;20008;-83
2022/06/27 16:30:06;;;;;;;;;;;26.30;92.00;;;;;;4999412;28;20004;-82
2022/06/27 16:32:32;;;;;;;;;;;26.30;91.90;;;;;;5001184;28;19992;-80
2022/06/27 16:34:58;;;;;;;;;;;26.30;91.90;;;;;;5000381;28;19961;-82
2022/06/27 16:37:25;;;;;;;;;;;26.30;91.90;;;;;;5000313;28;19976;-83
2022/06/27 16:39:53;;;;;;;;;;;26.30;91.90;;;;;;4998814;28;19922;-83
2022/06/27 16:45:04;;;;;;;;;;;26.40;91.90;;;;;;4999913;28;20402;-81
2022/06/27 16:47:31;;;;;;;;;;;26.30;91.80;;;;;;4999148;28;20028;-83
2022/06/27 16:49:58;;;;;;;;;;;26.30;91.80;;;;;;4999505;28;19921;-84
2022/06/27 16:52:24;;;;;;;;;;;26.30;91.70;;;;;;5003176;28;19905;-84
2022/06/27 16:54:52;;;;;;;;;;;26.30;91.60;;;;;;5004296;28;19968;-84
2022/06/27 16:57:19;;;;;;;;;;;26.30;91.60;;;;;;4998933;28;19960;-84
2022/06/27 16:59:46;;;;;;;;;;;26.30;91.60;;;;;;4995708;28;19941;-84
2022/06/27 17:02:17;;;;;;;;;;;26.30;91.50;;;;;;4995827;28;20400;-84
2022/06/27 17:04:43;;;;;;;;;;;26.30;91.40;;;;;;4994700;28;19925;-85
2022/06/27 17:07:10;;;;;;;;;;;26.30;91.30;;;;;;4994978;28;19922;-85
2022/06/27 17:09:37;;;;;;;;;;;26.30;91.30;;;;;;4995541;28;19968;-85
2022/06/27 17:12:06;;;;;;;;;;;26.30;91.20;;;;;;4995579;28;20009;-84
2022/06/27 17:14:32;;;;;;;;;;;26.30;91.20;;;;;;4995389;28;20024;-84
2022/06/27 17:16:59;;;;;;;;;;;26.30;91.10;;;;;;4998856;28;19937;-85
2022/06/27 17:19:26;;;;;;;;;;;26.30;91.10;;;;;;5001482;28;20325;-83
2022/06/27 17:21:52;;;;;;;;;;;26.30;91.10;;;;;;4999854;28;19922;-84
2022/06/27 17:24:19;;;;;;;;;;;26.30;91.10;;;;;;4999780;28;20013;-84
2022/06/27 17:26:46;;;;;;;;;;;26.30;91.00;;;;;;5001385;28;20028;-82
2022/06/27 17:29:14;;;;;;;;;;;26.30;91.00;;;;;;5003649;28;20016;-84
2022/06/27 17:31:40;;;;;;;;;;;26.30;90.90;;;;;;4999991;28;19989;-84
2022/06/27 17:34:07;;;;;;;;;;;26.30;90.90;;;;;;5000688;28;19957;-84
2022/06/27 17:36:34;;;;;;;;;;;26.30;90.90;;;;;;5001451;28;19981;-84
2022/06/27 17:39:01;;;;;;;;;;;26.20;90.80;;;;;;4998940;28;19921;-84
2022/06/27 17:41:28;;;;;;;;;;;26.30;90.80;;;;;;4998677;28;19929;-84
2022/06/27 17:43:56;;;;;;;;;;;26.30;90.70;;;;;;4999763;28;20021;-87
2022/06/27 17:46:24;;;;;;;;;;;26.20;90.70;;;;;;4998264;28;20416;-85
2022/06/27 17:48:51;;;;;;;;;;;26.20;90.70;;;;;;4998278;28;19921;-86
2022/06/27 17:51:20;;;;;;;;;;;26.20;90.70;;;;;;4999878;28;19922;-84
2022/06/27 17:53:47;;;;;;;;;;;26.20;90.60;;;;;;4999709;28;19949;-85
2022/06/27 17:56:14;;;;;;;;;;;26.20;90.60;;;;;;4999593;28;19929;-85
2022/06/27 17:58:41;;;;;;;;;;;26.20;90.60;;;;;;5000012;28;19928;-84
2022/06/27 18:01:08;;;;;;;;;;;26.20;90.60;;;;;;4999303;28;19921;-84
2022/06/27 18:03:36;;;;;;;;;;;26.20;90.60;;;;;;5000058;28;20381;-84
2022/06/27 18:06:03;;;;;;;;;;;26.20;90.60;;;;;;4997897;28;19968;-83
2022/06/27 18:08:30;;;;;;;;;;;26.20;90.60;;;;;;4998699;28;20005;-85
2022/06/27 18:10:56;;;;;;;;;;;26.20;90.60;;;;;;4999078;28;20434;-85
2022/06/27 18:13:23;;;;;;;;;;;26.20;90.60;;;;;;5001617;28;20005;-85
2022/06/27 18:15:50;;;;;;;;;;;26.20;90.60;;;;;;4998432;28;20362;-83
2022/06/27 18:18:17;;;;;;;;;;;26.20;90.60;;;;;;4999061;28;19972;-85
2022/06/27 18:20:45;;;;;;;;;;;26.20;90.60;;;;;;5000273;28;19980;-85
2022/06/27 18:23:12;;;;;;;;;;;26.20;90.60;;;;;;4999859;28;19921;-85
2022/06/27 18:25:39;;;;;;;;;;;26.20;90.70;;;;;;5000251;28;19928;-87
2022/06/27 18:28:12;;;;;;;;;;;26.20;90.80;;;;;;4998338;28;20012;-86
2022/06/27 18:31:08;;;;;;;;;;;26.20;90.80;;;;;;5000301;28;19921;-86
2022/06/27 18:37:05;;;;;;;;;;;26.20;90.90;;;;;;4900453;29;19923;-87
2022/06/27 18:39:59;;;;;;;;;;;26.30;91.00;;;;;;4974942;28;19929;-87
2022/06/27 18:42:58;;;;;;;;;;;;;;;;;;;;;
2022/06/27 18:45:33;;;;;;;;;;;26.30;91.10;;;;;;4891430;29;19922;-86
2022/06/27 18:48:02;;;;;;;;;;;26.30;91.20;;;;;;4997436;28;19929;-86
2022/06/27 18:50:50;;;;;;;;;;;26.30;91.20;;;;;;4998104;28;19969;-86
2022/06/27 18:53:52;;;;;;;;;;;;;;;;;;;;;
2022/06/27 18:57:04;;;;;;;;;;;;;;;;;;;;;
2022/06/27 19:11:52;;;;;;;;;;;26.30;91.70;;;;;;4974121;28;19928;-86
2022/06/27 19:23:41;;;;;;;;;;;;;;;;;;;;;
2022/06/27 19:26:30;;;;;;;;;;;;;;;;;;;;;
2022/06/27 19:29:26;;;;;;;;;;;26.30;92.70;;;;;;4997108;28;20389;-87
2022/06/27 19:35:18;;;;;;;;;;;26.30;92.70;;;;;;4944823;28;19922;-87
2022/06/27 19:38:18;;;;;;;;;;;26.30;92.90;;;;;;5000055;28;19956;-86
2022/06/27 19:47:07;;;;;;;;;;;26.30;93.20;;;;;;4998046;28;19947;-86
2022/06/27 19:52:50;;;;;;;;;;;;;;;;;;;;;
2022/06/27 19:55:17;;;;;;;;;;;26.30;93.80;;;;;;5001332;28;19977;-86
2022/06/27 19:57:44;;;;;;;;;;;26.40;94.00;;;;;;5022241;23;19972;-86
2022/06/27 20:00:11;;;;;;;;;;;26.40;94.10;;;;;;4997254;28;20020;-87
2022/06/27 20:02:41;;;;;;;;;;;26.40;94.30;;;;;;4996846;28;19992;-87
2022/06/27 20:05:07;;;;;;;;;;;26.40;94.40;;;;;;4997818;28;19922;-87
2022/06/27 20:07:34;;;;;;;;;;;26.30;94.50;;;;;;4996358;28;19922;-87
2022/06/27 20:10:03;;;;;;;;;;;26.40;94.70;;;;;;4996074;28;19922;-87
2022/06/27 20:12:30;;;;;;;;;;;26.30;94.80;;;;;;4998952;28;19988;-87
2022/06/27 20:14:57;;;;;;;;;;;26.40;95.00;;;;;;4997405;28;20016;-88
2022/06/27 20:17:23;;;;;;;;;;;26.40;95.10;;;;;;4995952;28;20012;-89
2022/06/27 20:19:52;;;;;;;;;;;26.30;95.20;;;;;;4996615;28;19968;-89
2022/06/27 20:22:19;;;;;;;;;;;26.40;95.40;;;;;;5000123;28;19957;-91
2022/06/27 20:24:46;;;;;;;;;;;26.30;95.50;;;;;;4996924;28;20016;-90
2022/06/27 20:27:13;;;;;;;;;;;26.30;95.70;;;;;;4994687;28;20012;-90
2022/06/27 20:29:40;;;;;;;;;;;26.30;95.70;;;;;;4994679;28;20032;-89
2022/06/27 20:32:07;;;;;;;;;;;26.30;95.70;;;;;;4994763;28;19972;-89
2022/06/27 20:34:33;;;;;;;;;;;26.30;95.80;;;;;;4996076;28;19957;-89
2022/06/27 20:37:02;;;;;;;;;;;26.30;96.00;;;;;;4996839;28;20020;-89
2022/06/27 20:39:29;;;;;;;;;;;26.30;96.10;;;;;;4997439;28;19981;-89
2022/06/27 20:41:56;;;;;;;;;;;26.30;96.20;;;;;;4997583;28;19930;-89
2022/06/27 20:44:23;;;;;;;;;;;26.30;96.30;;;;;;4995658;28;19928;-89
2022/06/27 20:46:50;;;;;;;;;;;26.30;96.40;;;;;;4995544;28;19928;-89
2022/06/27 20:49:16;;;;;;;;;;;26.30;96.60;;;;;;4995700;28;20015;-88
2022/06/27 20:51:43;;;;;;;;;;;26.30;96.80;;;;;;4998990;28;19928;-89
